sensor_id;sensor_type;location;lat;lon;timestamp;P1;durP1;ratioP1;P2;durP2;ratioP2
75820;SDS011;64454;51.984;9.838;2024-03-25T00:00:08;4.70;;;2.30;;
75820;SDS011;64454;51.984;9.838;2024-03-25T00:02:36;6.00;;;2.50;;
75820;SDS011;64454;51.984;9.838;2024-03-25T00:05:02;6.00;;;2.45;;
75820;SDS011;64454;51.984;9.838;2024-03-25T00:07:29;2.72;;;1.70;;
75820;SDS011;64454;51.984;9.838;2024-03-25T00:09:55;4.20;;;2.00;;
75820;SDS011;64454;51.984;9.838;2024-03-25T00:12:22;4.15;;;2.00;;
75820;SDS011;64454;51.984;9.838;2024-03-25T00:14:48;5.47;;;2.30;;
75820;SDS011;64454;51.984;9.838;2024-03-25T00:17:13;4.70;;;1.58;;
75820;SDS011;64454;51.984;9.838;2024-03-25T00:19:40;5.38;;;2.15;;
75820;SDS011;64454;51.984;9.838;2024-03-25T00:22:05;6.55;;;2.45;;
75820;SDS011;64454;51.984;9.838;2024-03-25T00:24:32;5.72;;;2.20;;
75820;SDS011;64454;51.984;9.838;2024-03-25T00:26:58;10.20;;;2.47;;
75820;SDS011;64454;51.984;9.838;2024-03-25T00:29:24;6.00;;;1.90;;
75820;SDS011;64454;51.984;9.838;2024-03-25T00:31:50;4.32;;;2.40;;
75820;SDS011;64454;51.984;9.838;2024-03-25T00:34:16;4.73;;;1.97;;
75820;SDS011;64454;51.984;9.838;2024-03-25T00:36:42;5.03;;;2.40;;
75820;SDS011;64454;51.984;9.838;2024-03-25T00:39:08;4.50;;;2.40;;
75820;SDS011;64454;51.984;9.838;2024-03-25T00:41:36;5.90;;;2.30;;
75820;SDS011;64454;51.984;9.838;2024-03-25T00:44:02;2.75;;;2.00;;
75820;SDS011;64454;51.984;9.838;2024-03-25T00:46:28;4.45;;;2.00;;
75820;SDS011;64454;51.984;9.838;2024-03-25T00:48:54;6.95;;;2.10;;
75820;SDS011;64454;51.984;9.838;2024-03-25T00:51:20;6.13;;;2.30;;
75820;SDS011;64454;51.984;9.838;2024-03-25T00:53:46;3.50;;;1.80;;
75820;SDS011;64454;51.984;9.838;2024-03-25T00:56:12;6.15;;;2.30;;
75820;SDS011;64454;51.984;9.838;2024-03-25T00:58:39;4.10;;;1.42;;
75820;SDS011;64454;51.984;9.838;2024-03-25T01:01:04;7.53;;;2.05;;
75820;SDS011;64454;51.984;9.838;2024-03-25T01:03:30;2.85;;;1.83;;
75820;SDS011;64454;51.984;9.838;2024-03-25T01:05:56;5.63;;;1.83;;
75820;SDS011;64454;51.984;9.838;2024-03-25T01:08:23;4.60;;;2.20;;
75820;SDS011;64454;51.984;9.838;2024-03-25T01:10:49;2.85;;;2.10;;
75820;SDS011;64454;51.984;9.838;2024-03-25T01:13:16;4.32;;;1.83;;
75820;SDS011;64454;51.984;9.838;2024-03-25T01:15:42;5.00;;;2.33;;
75820;SDS011;64454;51.984;9.838;2024-03-25T01:18:08;4.10;;;2.00;;
75820;SDS011;64454;51.984;9.838;2024-03-25T01:20:34;6.05;;;2.25;;
75820;SDS011;64454;51.984;9.838;2024-03-25T01:23:00;4.85;;;2.13;;
75820;SDS011;64454;51.984;9.838;2024-03-25T01:25:26;5.40;;;2.07;;
75820;SDS011;64454;51.984;9.838;2024-03-25T01:27:52;4.78;;;2.10;;
75820;SDS011;64454;51.984;9.838;2024-03-25T01:30:18;6.13;;;2.42;;
75820;SDS011;64454;51.984;9.838;2024-03-25T01:32:45;5.13;;;2.38;;
75820;SDS011;64454;51.984;9.838;2024-03-25T01:35:13;5.90;;;2.60;;
75820;SDS011;64454;51.984;9.838;2024-03-25T01:37:40;6.80;;;2.10;;
75820;SDS011;64454;51.984;9.838;2024-03-25T01:40:07;4.20;;;2.10;;
75820;SDS011;64454;51.984;9.838;2024-03-25T01:42:35;3.47;;;2.00;;
75820;SDS011;64454;51.984;9.838;2024-03-25T01:45:01;4.93;;;2.00;;
75820;SDS011;64454;51.984;9.838;2024-03-25T01:47:28;6.53;;;3.00;;
75820;SDS011;64454;51.984;9.838;2024-03-25T01:49:57;3.97;;;2.10;;
75820;SDS011;64454;51.984;9.838;2024-03-25T01:52:23;6.13;;;2.10;;
75820;SDS011;64454;51.984;9.838;2024-03-25T01:54:51;5.00;;;2.08;;
75820;SDS011;64454;51.984;9.838;2024-03-25T01:57:18;6.75;;;2.20;;
75820;SDS011;64454;51.984;9.838;2024-03-25T01:59:45;4.22;;;2.15;;
75820;SDS011;64454;51.984;9.838;2024-03-25T02:02:11;6.93;;;2.60;;
75820;SDS011;64454;51.984;9.838;2024-03-25T02:04:38;6.45;;;2.10;;
75820;SDS011;64454;51.984;9.838;2024-03-25T02:07:06;5.97;;;2.20;;
75820;SDS011;64454;51.984;9.838;2024-03-25T02:09:35;6.57;;;1.95;;
75820;SDS011;64454;51.984;9.838;2024-03-25T02:12:01;4.10;;;2.03;;
75820;SDS011;64454;51.984;9.838;2024-03-25T02:14:28;3.83;;;1.60;;
75820;SDS011;64454;51.984;9.838;2024-03-25T02:16:55;3.15;;;1.80;;
75820;SDS011;64454;51.984;9.838;2024-03-25T02:19:21;3.55;;;1.90;;
75820;SDS011;64454;51.984;9.838;2024-03-25T02:21:49;5.85;;;1.90;;
75820;SDS011;64454;51.984;9.838;2024-03-25T02:24:16;3.30;;;1.88;;
75820;SDS011;64454;51.984;9.838;2024-03-25T02:26:46;3.92;;;2.05;;
75820;SDS011;64454;51.984;9.838;2024-03-25T02:29:12;3.95;;;1.90;;
75820;SDS011;64454;51.984;9.838;2024-03-25T02:31:38;3.55;;;2.03;;
75820;SDS011;64454;51.984;9.838;2024-03-25T02:34:04;3.17;;;1.75;;
75820;SDS011;64454;51.984;9.838;2024-03-25T02:36:30;3.08;;;1.80;;
75820;SDS011;64454;51.984;9.838;2024-03-25T02:38:58;5.20;;;1.80;;
75820;SDS011;64454;51.984;9.838;2024-03-25T02:41:25;3.33;;;1.67;;
75820;SDS011;64454;51.984;9.838;2024-03-25T02:43:52;3.30;;;1.50;;
75820;SDS011;64454;51.984;9.838;2024-03-25T02:46:19;4.18;;;1.70;;
75820;SDS011;64454;51.984;9.838;2024-03-25T02:48:45;4.07;;;1.73;;
75820;SDS011;64454;51.984;9.838;2024-03-25T02:51:11;1.98;;;1.38;;
75820;SDS011;64454;51.984;9.838;2024-03-25T02:53:37;4.17;;;1.60;;
75820;SDS011;64454;51.984;9.838;2024-03-25T02:56:04;2.80;;;1.60;;
75820;SDS011;64454;51.984;9.838;2024-03-25T02:58:30;3.97;;;1.60;;
75820;SDS011;64454;51.984;9.838;2024-03-25T03:00:57;2.50;;;1.50;;
75820;SDS011;64454;51.984;9.838;2024-03-25T03:03:23;2.50;;;1.27;;
75820;SDS011;64454;51.984;9.838;2024-03-25T03:05:49;3.70;;;1.10;;
75820;SDS011;64454;51.984;9.838;2024-03-25T03:08:14;2.60;;;1.40;;
75820;SDS011;64454;51.984;9.838;2024-03-25T03:10:40;2.90;;;1.20;;
75820;SDS011;64454;51.984;9.838;2024-03-25T03:13:06;2.40;;;1.20;;
75820;SDS011;64454;51.984;9.838;2024-03-25T03:15:32;4.50;;;1.70;;
75820;SDS011;64454;51.984;9.838;2024-03-25T03:17:59;2.58;;;1.42;;
75820;SDS011;64454;51.984;9.838;2024-03-25T03:20:25;2.30;;;1.30;;
75820;SDS011;64454;51.984;9.838;2024-03-25T03:22:51;2.30;;;1.30;;
75820;SDS011;64454;51.984;9.838;2024-03-25T03:25:17;3.13;;;1.60;;
75820;SDS011;64454;51.984;9.838;2024-03-25T03:27:43;3.00;;;1.40;;
75820;SDS011;64454;51.984;9.838;2024-03-25T03:30:09;1.90;;;1.23;;
75820;SDS011;64454;51.984;9.838;2024-03-25T03:32:36;3.80;;;1.30;;
75820;SDS011;64454;51.984;9.838;2024-03-25T03:35:03;4.00;;;1.45;;
75820;SDS011;64454;51.984;9.838;2024-03-25T03:37:29;4.45;;;1.20;;
75820;SDS011;64454;51.984;9.838;2024-03-25T03:39:55;2.90;;;1.27;;
75820;SDS011;64454;51.984;9.838;2024-03-25T03:42:21;3.40;;;1.80;;
75820;SDS011;64454;51.984;9.838;2024-03-25T03:44:47;3.60;;;1.60;;
75820;SDS011;64454;51.984;9.838;2024-03-25T03:47:13;4.67;;;2.10;;
75820;SDS011;64454;51.984;9.838;2024-03-25T03:49:39;4.55;;;2.10;;
75820;SDS011;64454;51.984;9.838;2024-03-25T03:52:06;2.65;;;1.50;;
75820;SDS011;64454;51.984;9.838;2024-03-25T03:54:32;3.20;;;1.50;;
75820;SDS011;64454;51.984;9.838;2024-03-25T03:56:58;5.82;;;2.28;;
75820;SDS011;64454;51.984;9.838;2024-03-25T03:59:25;5.60;;;1.60;;
75820;SDS011;64454;51.984;9.838;2024-03-25T04:01:51;4.63;;;1.90;;
75820;SDS011;64454;51.984;9.838;2024-03-25T04:04:17;4.13;;;2.10;;
75820;SDS011;64454;51.984;9.838;2024-03-25T04:06:43;3.80;;;2.03;;
75820;SDS011;64454;51.984;9.838;2024-03-25T04:09:10;3.47;;;2.07;;
75820;SDS011;64454;51.984;9.838;2024-03-25T04:11:36;3.75;;;2.30;;
75820;SDS011;64454;51.984;9.838;2024-03-25T04:14:02;4.20;;;1.93;;
75820;SDS011;64454;51.984;9.838;2024-03-25T04:16:28;3.70;;;1.80;;
75820;SDS011;64454;51.984;9.838;2024-03-25T04:18:55;3.50;;;1.80;;
75820;SDS011;64454;51.984;9.838;2024-03-25T04:21:21;5.80;;;2.10;;
75820;SDS011;64454;51.984;9.838;2024-03-25T04:23:47;4.50;;;1.60;;
75820;SDS011;64454;51.984;9.838;2024-03-25T04:26:15;4.85;;;1.88;;
75820;SDS011;64454;51.984;9.838;2024-03-25T04:28:41;3.15;;;1.60;;
75820;SDS011;64454;51.984;9.838;2024-03-25T04:31:07;5.40;;;1.92;;
75820;SDS011;64454;51.984;9.838;2024-03-25T04:33:33;3.92;;;1.90;;
75820;SDS011;64454;51.984;9.838;2024-03-25T04:36:00;4.00;;;1.60;;
75820;SDS011;64454;51.984;9.838;2024-03-25T04:38:26;4.38;;;2.35;;
75820;SDS011;64454;51.984;9.838;2024-03-25T04:40:52;3.20;;;1.70;;
75820;SDS011;64454;51.984;9.838;2024-03-25T04:43:19;5.13;;;2.10;;
75820;SDS011;64454;51.984;9.838;2024-03-25T04:45:45;3.22;;;1.80;;
75820;SDS011;64454;51.984;9.838;2024-03-25T04:48:11;4.50;;;2.30;;
75820;SDS011;64454;51.984;9.838;2024-03-25T04:50:37;6.30;;;2.70;;
75820;SDS011;64454;51.984;9.838;2024-03-25T04:53:03;5.30;;;2.83;;
75820;SDS011;64454;51.984;9.838;2024-03-25T04:55:29;11.63;;;3.60;;
75820;SDS011;64454;51.984;9.838;2024-03-25T04:57:55;8.05;;;3.60;;
75820;SDS011;64454;51.984;9.838;2024-03-25T05:00:21;8.55;;;3.00;;
75820;SDS011;64454;51.984;9.838;2024-03-25T05:02:48;6.53;;;3.30;;
75820;SDS011;64454;51.984;9.838;2024-03-25T05:05:13;7.73;;;3.83;;
75820;SDS011;64454;51.984;9.838;2024-03-25T05:07:39;8.80;;;3.35;;
75820;SDS011;64454;51.984;9.838;2024-03-25T05:10:06;7.95;;;3.42;;
75820;SDS011;64454;51.984;9.838;2024-03-25T05:12:32;12.65;;;4.93;;
75820;SDS011;64454;51.984;9.838;2024-03-25T05:14:58;8.40;;;3.20;;
75820;SDS011;64454;51.984;9.838;2024-03-25T05:17:25;10.53;;;4.37;;
75820;SDS011;64454;51.984;9.838;2024-03-25T05:19:51;8.80;;;3.20;;
75820;SDS011;64454;51.984;9.838;2024-03-25T05:22:17;6.63;;;4.07;;
75820;SDS011;64454;51.984;9.838;2024-03-25T05:24:43;12.77;;;3.50;;
75820;SDS011;64454;51.984;9.838;2024-03-25T05:27:09;8.90;;;3.70;;
75820;SDS011;64454;51.984;9.838;2024-03-25T05:29:35;10.00;;;3.22;;
75820;SDS011;64454;51.984;9.838;2024-03-25T05:32:02;9.53;;;3.63;;
75820;SDS011;64454;51.984;9.838;2024-03-25T05:34:29;9.50;;;3.53;;
75820;SDS011;64454;51.984;9.838;2024-03-25T05:36:56;7.90;;;3.45;;
75820;SDS011;64454;51.984;9.838;2024-03-25T05:39:22;9.20;;;3.10;;
75820;SDS011;64454;51.984;9.838;2024-03-25T05:41:48;9.15;;;2.80;;
75820;SDS011;64454;51.984;9.838;2024-03-25T05:44:15;7.00;;;3.17;;
75820;SDS011;64454;51.984;9.838;2024-03-25T05:46:41;9.57;;;4.15;;
75820;SDS011;64454;51.984;9.838;2024-03-25T05:49:07;11.88;;;3.75;;
75820;SDS011;64454;51.984;9.838;2024-03-25T05:51:33;8.65;;;3.58;;
75820;SDS011;64454;51.984;9.838;2024-03-25T05:54:00;7.60;;;3.10;;
75820;SDS011;64454;51.984;9.838;2024-03-25T05:56:26;8.10;;;3.00;;
75820;SDS011;64454;51.984;9.838;2024-03-25T05:58:55;7.22;;;3.05;;
75820;SDS011;64454;51.984;9.838;2024-03-25T06:01:21;11.20;;;3.80;;
75820;SDS011;64454;51.984;9.838;2024-03-25T06:03:47;12.97;;;4.00;;
75820;SDS011;64454;51.984;9.838;2024-03-25T06:06:13;9.80;;;3.67;;
75820;SDS011;64454;51.984;9.838;2024-03-25T06:08:40;11.10;;;4.00;;
75820;SDS011;64454;51.984;9.838;2024-03-25T06:11:06;11.67;;;3.57;;
75820;SDS011;64454;51.984;9.838;2024-03-25T06:13:31;7.50;;;3.30;;
75820;SDS011;64454;51.984;9.838;2024-03-25T06:15:58;9.65;;;3.60;;
75820;SDS011;64454;51.984;9.838;2024-03-25T06:18:24;7.22;;;2.97;;
75820;SDS011;64454;51.984;9.838;2024-03-25T06:20:49;5.70;;;3.33;;
75820;SDS011;64454;51.984;9.838;2024-03-25T06:23:22;5.78;;;2.72;;
75820;SDS011;64454;51.984;9.838;2024-03-25T06:25:50;7.68;;;3.00;;
75820;SDS011;64454;51.984;9.838;2024-03-25T06:28:17;7.85;;;2.95;;
75820;SDS011;64454;51.984;9.838;2024-03-25T06:30:44;8.67;;;3.53;;
75820;SDS011;64454;51.984;9.838;2024-03-25T06:33:30;8.32;;;3.13;;
75820;SDS011;64454;51.984;9.838;2024-03-25T06:36:15;11.75;;;3.38;;
75820;SDS011;64454;51.984;9.838;2024-03-25T06:38:41;6.63;;;2.73;;
75820;SDS011;64454;51.984;9.838;2024-03-25T06:41:07;6.40;;;3.10;;
75820;SDS011;64454;51.984;9.838;2024-03-25T06:43:33;3.95;;;2.40;;
75820;SDS011;64454;51.984;9.838;2024-03-25T06:46:00;4.63;;;3.00;;
75820;SDS011;64454;51.984;9.838;2024-03-25T06:48:26;6.63;;;2.50;;
75820;SDS011;64454;51.984;9.838;2024-03-25T06:50:52;3.72;;;2.53;;
75820;SDS011;64454;51.984;9.838;2024-03-25T06:53:19;7.32;;;2.90;;
75820;SDS011;64454;51.984;9.838;2024-03-25T06:55:50;4.60;;;2.53;;
75820;SDS011;64454;51.984;9.838;2024-03-25T06:58:19;6.15;;;2.50;;
75820;SDS011;64454;51.984;9.838;2024-03-25T07:00:46;7.95;;;2.53;;
75820;SDS011;64454;51.984;9.838;2024-03-25T07:03:13;7.07;;;3.00;;
75820;SDS011;64454;51.984;9.838;2024-03-25T07:05:39;7.63;;;3.67;;
75820;SDS011;64454;51.984;9.838;2024-03-25T07:08:05;8.65;;;3.70;;
75820;SDS011;64454;51.984;9.838;2024-03-25T07:10:31;10.00;;;4.00;;
75820;SDS011;64454;51.984;9.838;2024-03-25T07:12:57;8.70;;;4.32;;
75820;SDS011;64454;51.984;9.838;2024-03-25T07:15:24;9.38;;;3.50;;
75820;SDS011;64454;51.984;9.838;2024-03-25T07:17:49;7.53;;;3.20;;
75820;SDS011;64454;51.984;9.838;2024-03-25T07:20:15;6.82;;;3.10;;
75820;SDS011;64454;51.984;9.838;2024-03-25T07:22:41;8.90;;;3.40;;
75820;SDS011;64454;51.984;9.838;2024-03-25T07:25:07;4.18;;;2.45;;
75820;SDS011;64454;51.984;9.838;2024-03-25T07:27:34;8.50;;;2.40;;
75820;SDS011;64454;51.984;9.838;2024-03-25T07:30:00;11.20;;;2.80;;
75820;SDS011;64454;51.984;9.838;2024-03-25T07:32:26;7.00;;;3.17;;
75820;SDS011;64454;51.984;9.838;2024-03-25T07:34:52;9.00;;;3.20;;
75820;SDS011;64454;51.984;9.838;2024-03-25T07:37:18;7.68;;;3.15;;
75820;SDS011;64454;51.984;9.838;2024-03-25T07:39:45;6.97;;;2.53;;
75820;SDS011;64454;51.984;9.838;2024-03-25T07:42:12;5.90;;;2.22;;
75820;SDS011;64454;51.984;9.838;2024-03-25T07:44:39;9.05;;;3.25;;
75820;SDS011;64454;51.984;9.838;2024-03-25T07:47:04;8.68;;;3.00;;
75820;SDS011;64454;51.984;9.838;2024-03-25T07:49:31;7.30;;;3.50;;
75820;SDS011;64454;51.984;9.838;2024-03-25T07:51:58;7.40;;;3.63;;
75820;SDS011;64454;51.984;9.838;2024-03-25T07:54:24;8.97;;;3.10;;
75820;SDS011;64454;51.984;9.838;2024-03-25T07:56:51;7.13;;;3.60;;
75820;SDS011;64454;51.984;9.838;2024-03-25T07:59:17;6.70;;;3.37;;
75820;SDS011;64454;51.984;9.838;2024-03-25T08:01:43;8.55;;;2.83;;
75820;SDS011;64454;51.984;9.838;2024-03-25T08:04:10;5.20;;;2.60;;
75820;SDS011;64454;51.984;9.838;2024-03-25T08:06:36;10.18;;;3.55;;
75820;SDS011;64454;51.984;9.838;2024-03-25T08:09:02;7.53;;;2.80;;
75820;SDS011;64454;51.984;9.838;2024-03-25T08:11:30;7.05;;;2.50;;
75820;SDS011;64454;51.984;9.838;2024-03-25T08:13:56;5.80;;;3.05;;
75820;SDS011;64454;51.984;9.838;2024-03-25T08:16:22;7.78;;;2.97;;
75820;SDS011;64454;51.984;9.838;2024-03-25T08:18:48;9.10;;;2.83;;
75820;SDS011;64454;51.984;9.838;2024-03-25T08:21:14;6.10;;;2.50;;
75820;SDS011;64454;51.984;9.838;2024-03-25T08:23:40;5.53;;;2.40;;
75820;SDS011;64454;51.984;9.838;2024-03-25T08:26:06;7.20;;;2.42;;
75820;SDS011;64454;51.984;9.838;2024-03-25T08:28:32;8.57;;;2.70;;
75820;SDS011;64454;51.984;9.838;2024-03-25T08:30:57;5.68;;;2.45;;
75820;SDS011;64454;51.984;9.838;2024-03-25T08:33:24;5.32;;;2.22;;
75820;SDS011;64454;51.984;9.838;2024-03-25T08:35:49;5.00;;;2.08;;
75820;SDS011;64454;51.984;9.838;2024-03-25T08:38:15;5.50;;;2.00;;
75820;SDS011;64454;51.984;9.838;2024-03-25T08:40:42;5.80;;;2.30;;
75820;SDS011;64454;51.984;9.838;2024-03-25T08:43:08;5.03;;;2.10;;
75820;SDS011;64454;51.984;9.838;2024-03-25T08:45:34;6.38;;;1.90;;
75820;SDS011;64454;51.984;9.838;2024-03-25T08:48:00;7.90;;;2.10;;
75820;SDS011;64454;51.984;9.838;2024-03-25T08:50:26;7.97;;;2.28;;
75820;SDS011;64454;51.984;9.838;2024-03-25T08:52:52;6.65;;;2.50;;
75820;SDS011;64454;51.984;9.838;2024-03-25T08:55:19;4.53;;;2.60;;
75820;SDS011;64454;51.984;9.838;2024-03-25T08:57:45;6.50;;;2.88;;
75820;SDS011;64454;51.984;9.838;2024-03-25T09:00:12;6.35;;;1.92;;
75820;SDS011;64454;51.984;9.838;2024-03-25T09:02:39;5.78;;;1.95;;
75820;SDS011;64454;51.984;9.838;2024-03-25T09:05:05;3.70;;;2.10;;
75820;SDS011;64454;51.984;9.838;2024-03-25T09:07:32;4.18;;;1.40;;
75820;SDS011;64454;51.984;9.838;2024-03-25T09:09:58;3.80;;;1.40;;
75820;SDS011;64454;51.984;9.838;2024-03-25T09:12:42;6.13;;;1.50;;
75820;SDS011;64454;51.984;9.838;2024-03-25T09:15:09;6.30;;;1.80;;
75820;SDS011;64454;51.984;9.838;2024-03-25T09:17:35;4.95;;;1.90;;
75820;SDS011;64454;51.984;9.838;2024-03-25T09:20:01;4.05;;;1.60;;
75820;SDS011;64454;51.984;9.838;2024-03-25T09:22:29;7.18;;;2.00;;
75820;SDS011;64454;51.984;9.838;2024-03-25T09:24:54;5.10;;;1.70;;
75820;SDS011;64454;51.984;9.838;2024-03-25T09:27:20;4.55;;;2.00;;
75820;SDS011;64454;51.984;9.838;2024-03-25T09:29:46;6.25;;;1.88;;
75820;SDS011;64454;51.984;9.838;2024-03-25T09:32:13;4.55;;;2.10;;
75820;SDS011;64454;51.984;9.838;2024-03-25T09:34:38;4.85;;;1.98;;
75820;SDS011;64454;51.984;9.838;2024-03-25T09:37:04;8.75;;;2.40;;
75820;SDS011;64454;51.984;9.838;2024-03-25T09:39:30;5.67;;;2.40;;
75820;SDS011;64454;51.984;9.838;2024-03-25T09:41:56;4.97;;;1.58;;
75820;SDS011;64454;51.984;9.838;2024-03-25T09:44:27;6.05;;;1.85;;
75820;SDS011;64454;51.984;9.838;2024-03-25T09:46:56;4.00;;;1.73;;
75820;SDS011;64454;51.984;9.838;2024-03-25T09:49:23;5.47;;;1.60;;
75820;SDS011;64454;51.984;9.838;2024-03-25T09:51:52;4.50;;;1.20;;
75820;SDS011;64454;51.984;9.838;2024-03-25T09:54:18;3.37;;;1.60;;
75820;SDS011;64454;51.984;9.838;2024-03-25T09:56:43;4.93;;;1.40;;
75820;SDS011;64454;51.984;9.838;2024-03-25T09:59:11;5.88;;;2.00;;
75820;SDS011;64454;51.984;9.838;2024-03-25T10:01:38;4.73;;;1.90;;
75820;SDS011;64454;51.984;9.838;2024-03-25T10:04:04;4.63;;;1.50;;
75820;SDS011;64454;51.984;9.838;2024-03-25T10:06:31;4.20;;;1.38;;
75820;SDS011;64454;51.984;9.838;2024-03-25T10:08:57;3.20;;;1.40;;
75820;SDS011;64454;51.984;9.838;2024-03-25T10:11:23;6.50;;;1.70;;
75820;SDS011;64454;51.984;9.838;2024-03-25T10:13:50;4.50;;;1.48;;
75820;SDS011;64454;51.984;9.838;2024-03-25T10:16:16;4.70;;;1.60;;
75820;SDS011;64454;51.984;9.838;2024-03-25T10:18:42;4.93;;;2.00;;
75820;SDS011;64454;51.984;9.838;2024-03-25T10:21:09;5.30;;;4.07;;
75820;SDS011;64454;51.984;9.838;2024-03-25T10:23:36;4.40;;;1.90;;
75820;SDS011;64454;51.984;9.838;2024-03-25T10:26:07;5.90;;;4.18;;
75820;SDS011;64454;51.984;9.838;2024-03-25T10:28:33;4.40;;;1.50;;
75820;SDS011;64454;51.984;9.838;2024-03-25T10:31:02;4.83;;;1.90;;
75820;SDS011;64454;51.984;9.838;2024-03-25T10:33:29;4.88;;;1.30;;
75820;SDS011;64454;51.984;9.838;2024-03-25T10:35:55;4.07;;;1.80;;
75820;SDS011;64454;51.984;9.838;2024-03-25T10:38:25;5.03;;;1.60;;
75820;SDS011;64454;51.984;9.838;2024-03-25T10:40:54;5.57;;;2.00;;
75820;SDS011;64454;51.984;9.838;2024-03-25T10:43:22;5.55;;;1.75;;
75820;SDS011;64454;51.984;9.838;2024-03-25T10:45:54;4.93;;;1.70;;
75820;SDS011;64454;51.984;9.838;2024-03-25T10:48:25;3.47;;;1.50;;
75820;SDS011;64454;51.984;9.838;2024-03-25T10:50:54;3.70;;;1.60;;
75820;SDS011;64454;51.984;9.838;2024-03-25T10:53:21;5.18;;;1.80;;
75820;SDS011;64454;51.984;9.838;2024-03-25T10:55:48;4.57;;;1.30;;
75820;SDS011;64454;51.984;9.838;2024-03-25T10:58:19;5.65;;;1.77;;
75820;SDS011;64454;51.984;9.838;2024-03-25T11:00:47;3.72;;;1.50;;
75820;SDS011;64454;51.984;9.838;2024-03-25T11:03:16;5.05;;;2.35;;
75820;SDS011;64454;51.984;9.838;2024-03-25T11:05:42;5.78;;;1.60;;
75820;SDS011;64454;51.984;9.838;2024-03-25T11:08:11;7.70;;;1.80;;
75820;SDS011;64454;51.984;9.838;2024-03-25T11:10:40;3.40;;;1.70;;
75820;SDS011;64454;51.984;9.838;2024-03-25T11:13:11;5.25;;;2.10;;
75820;SDS011;64454;51.984;9.838;2024-03-25T11:15:39;3.35;;;1.30;;
75820;SDS011;64454;51.984;9.838;2024-03-25T11:18:11;5.30;;;1.40;;
75820;SDS011;64454;51.984;9.838;2024-03-25T11:20:38;4.30;;;1.35;;
75820;SDS011;64454;51.984;9.838;2024-03-25T11:23:08;4.57;;;2.20;;
75820;SDS011;64454;51.984;9.838;2024-03-25T11:25:35;3.08;;;1.08;;
75820;SDS011;64454;51.984;9.838;2024-03-25T11:28:02;3.60;;;2.03;;
75820;SDS011;64454;51.984;9.838;2024-03-25T11:30:29;3.03;;;1.70;;
75820;SDS011;64454;51.984;9.838;2024-03-25T11:32:57;7.25;;;2.20;;
75820;SDS011;64454;51.984;9.838;2024-03-25T11:35:28;3.40;;;1.73;;
75820;SDS011;64454;51.984;9.838;2024-03-25T11:37:53;3.63;;;1.70;;
75820;SDS011;64454;51.984;9.838;2024-03-25T11:40:19;4.60;;;1.20;;
75820;SDS011;64454;51.984;9.838;2024-03-25T11:42:45;2.87;;;1.67;;
75820;SDS011;64454;51.984;9.838;2024-03-25T11:45:13;3.28;;;1.40;;
75820;SDS011;64454;51.984;9.838;2024-03-25T11:47:41;4.47;;;1.75;;
75820;SDS011;64454;51.984;9.838;2024-03-25T11:50:09;5.25;;;1.52;;
75820;SDS011;64454;51.984;9.838;2024-03-25T11:52:38;4.18;;;1.50;;
75820;SDS011;64454;51.984;9.838;2024-03-25T11:55:04;4.35;;;1.60;;
75820;SDS011;64454;51.984;9.838;2024-03-25T11:57:33;3.57;;;1.60;;
75820;SDS011;64454;51.984;9.838;2024-03-25T12:00:00;3.30;;;1.45;;
75820;SDS011;64454;51.984;9.838;2024-03-25T12:02:28;8.88;;;4.80;;
75820;SDS011;64454;51.984;9.838;2024-03-25T12:04:54;6.35;;;2.90;;
75820;SDS011;64454;51.984;9.838;2024-03-25T12:07:21;5.83;;;2.67;;
75820;SDS011;64454;51.984;9.838;2024-03-25T12:09:47;3.72;;;1.85;;
75820;SDS011;64454;51.984;9.838;2024-03-25T12:12:32;3.30;;;1.70;;
75820;SDS011;64454;51.984;9.838;2024-03-25T12:14:59;4.40;;;1.70;;
75820;SDS011;64454;51.984;9.838;2024-03-25T12:17:27;3.63;;;1.50;;
75820;SDS011;64454;51.984;9.838;2024-03-25T12:20:01;4.30;;;1.50;;
75820;SDS011;64454;51.984;9.838;2024-03-25T12:22:30;2.35;;;0.90;;
75820;SDS011;64454;51.984;9.838;2024-03-25T12:24:58;3.47;;;1.20;;
75820;SDS011;64454;51.984;9.838;2024-03-25T12:27:25;2.53;;;1.00;;
75820;SDS011;64454;51.984;9.838;2024-03-25T12:29:58;4.82;;;1.42;;
75820;SDS011;64454;51.984;9.838;2024-03-25T12:32:36;2.05;;;1.30;;
75820;SDS011;64454;51.984;9.838;2024-03-25T12:35:06;5.63;;;1.70;;
75820;SDS011;64454;51.984;9.838;2024-03-25T12:37:33;4.22;;;1.45;;
75820;SDS011;64454;51.984;9.838;2024-03-25T12:40:01;3.38;;;1.45;;
75820;SDS011;64454;51.984;9.838;2024-03-25T12:42:30;2.92;;;1.27;;
75820;SDS011;64454;51.984;9.838;2024-03-25T12:44:57;3.63;;;2.00;;
75820;SDS011;64454;51.984;9.838;2024-03-25T12:47:22;3.63;;;0.90;;
75820;SDS011;64454;51.984;9.838;2024-03-25T12:49:48;3.25;;;1.10;;
75820;SDS011;64454;51.984;9.838;2024-03-25T12:52:14;2.60;;;1.00;;
75820;SDS011;64454;51.984;9.838;2024-03-25T12:54:41;2.03;;;1.00;;
75820;SDS011;64454;51.984;9.838;2024-03-25T12:57:07;3.23;;;2.20;;
75820;SDS011;64454;51.984;9.838;2024-03-25T12:59:33;3.47;;;1.20;;
75820;SDS011;64454;51.984;9.838;2024-03-25T13:01:59;2.40;;;0.90;;
75820;SDS011;64454;51.984;9.838;2024-03-25T13:04:26;3.30;;;1.20;;
75820;SDS011;64454;51.984;9.838;2024-03-25T13:06:52;3.45;;;1.50;;
75820;SDS011;64454;51.984;9.838;2024-03-25T13:09:18;2.40;;;1.60;;
75820;SDS011;64454;51.984;9.838;2024-03-25T13:11:45;4.03;;;1.20;;
75820;SDS011;64454;51.984;9.838;2024-03-25T13:14:11;3.42;;;1.10;;
75820;SDS011;64454;51.984;9.838;2024-03-25T13:16:37;2.40;;;0.87;;
75820;SDS011;64454;51.984;9.838;2024-03-25T13:19:04;3.40;;;1.60;;
75820;SDS011;64454;51.984;9.838;2024-03-25T13:21:30;2.55;;;0.90;;
75820;SDS011;64454;51.984;9.838;2024-03-25T13:23:56;2.20;;;0.70;;
75820;SDS011;64454;51.984;9.838;2024-03-25T13:26:22;2.10;;;1.00;;
75820;SDS011;64454;51.984;9.838;2024-03-25T13:28:49;4.95;;;1.40;;
75820;SDS011;64454;51.984;9.838;2024-03-25T13:31:15;2.60;;;1.13;;
75820;SDS011;64454;51.984;9.838;2024-03-25T13:33:41;3.38;;;1.20;;
75820;SDS011;64454;51.984;9.838;2024-03-25T13:36:07;3.95;;;1.45;;
75820;SDS011;64454;51.984;9.838;2024-03-25T13:38:33;4.47;;;1.23;;
75820;SDS011;64454;51.984;9.838;2024-03-25T13:40:59;3.00;;;1.25;;
75820;SDS011;64454;51.984;9.838;2024-03-25T13:43:25;3.00;;;1.05;;
75820;SDS011;64454;51.984;9.838;2024-03-25T13:45:52;4.40;;;1.70;;
75820;SDS011;64454;51.984;9.838;2024-03-25T13:48:18;3.67;;;2.10;;
75820;SDS011;64454;51.984;9.838;2024-03-25T13:50:44;4.30;;;1.30;;
75820;SDS011;64454;51.984;9.838;2024-03-25T13:53:10;2.10;;;0.98;;
75820;SDS011;64454;51.984;9.838;2024-03-25T13:55:36;3.92;;;1.50;;
75820;SDS011;64454;51.984;9.838;2024-03-25T13:58:02;2.03;;;1.20;;
75820;SDS011;64454;51.984;9.838;2024-03-25T14:00:30;4.07;;;1.10;;
75820;SDS011;64454;51.984;9.838;2024-03-25T14:02:59;3.50;;;0.90;;
75820;SDS011;64454;51.984;9.838;2024-03-25T14:05:25;3.00;;;1.30;;
75820;SDS011;64454;51.984;9.838;2024-03-25T14:07:51;2.17;;;1.20;;
75820;SDS011;64454;51.984;9.838;2024-03-25T14:10:17;2.90;;;1.10;;
75820;SDS011;64454;51.984;9.838;2024-03-25T14:12:43;3.83;;;1.60;;
75820;SDS011;64454;51.984;9.838;2024-03-25T14:15:09;2.22;;;1.10;;
75820;SDS011;64454;51.984;9.838;2024-03-25T14:17:36;2.70;;;1.50;;
75820;SDS011;64454;51.984;9.838;2024-03-25T14:20:03;3.28;;;1.30;;
75820;SDS011;64454;51.984;9.838;2024-03-25T14:22:31;5.45;;;1.60;;
75820;SDS011;64454;51.984;9.838;2024-03-25T14:24:58;2.40;;;1.17;;
75820;SDS011;64454;51.984;9.838;2024-03-25T14:27:24;2.90;;;1.20;;
75820;SDS011;64454;51.984;9.838;2024-03-25T14:29:50;3.72;;;1.30;;
75820;SDS011;64454;51.984;9.838;2024-03-25T14:32:18;3.03;;;1.20;;
75820;SDS011;64454;51.984;9.838;2024-03-25T14:34:44;4.20;;;1.30;;
75820;SDS011;64454;51.984;9.838;2024-03-25T14:37:11;2.78;;;1.40;;
75820;SDS011;64454;51.984;9.838;2024-03-25T14:39:37;2.35;;;1.08;;
75820;SDS011;64454;51.984;9.838;2024-03-25T14:42:03;2.72;;;1.48;;
75820;SDS011;64454;51.984;9.838;2024-03-25T14:44:29;4.03;;;1.70;;